International Virtual Aviation Organisation

Russian Federation and Kazakhstan MCD

 

Карточка аэропорта UAII

Внимание!
Информация на этой странице в стадии наполнения.
Если вы не увидели какой-то информации, или заметили неточность - пожалуйста сообщите нам!
Спасибо!
Команда RU-STAFF
Название аэропортаШымкент
Название аэропорта (англ.)Shymkent
Превышение1389 ft. (423.4 m.)
Координаты42°21.348', 69°28.734'
Высота перехода5000
Эшелон переходаFL70
Коды ответчика3430-3437, 3530-3537
Зона ОрВДШымкент РПИ (UAII)
Данные METARUAII 180630Z VRB01MPS CAVOK 07/M02 Q1007 R10/0///70 NOSIG RMK QFE720/0960
Проноз погоды (TAF)UAII 180500Z 1806/1906 16006MPS 6000 BKN030CB OVC100 TX12/1809Z TN00/1901Z TEMPO 1806/1812 20005G10MPS FEW050CB BKN100 TEMPO 1812/1821 23007G12MPS BKN033CB TEMPO 1821/1903 25009G14MPS 2000 -SHRA BR SCT010 BKN020CB
NOTAMshow/hide NOTAM
AWOS   TABLE

Информация о ВПП

ВПП Длина ВПП (м.) Покрытие Курс ВПП Частота ILS
103300Железобетон106111.7
283300Железобетон286110.3

Диспетчерские позиции




Спутниковое изображение